Time;durP1;ratioP1;P1;durP2;ratioP2;P2;SDS_P1;SDS_P2;PMS_P1;PMS_P2;Temp;Humidity;BMP_temperature;BMP_pressure;BME280_temperature;BME280_humidity;BME280_pressure;Samples;Min_cycle;Max_cycle;Signal;HPM_P1;HPM_P2
2023/06/21 00:00:15;;;;;;;11.57;7.22;;;;;;;;;;5096045;28;20446;-87
2023/06/21 00:02:43;;;;;;;8.48;7.03;;;;;;;;;;5096382;28;20084;-88
2023/06/21 00:05:11;;;;;;;11.15;6.95;;;;;;;;;;5096251;28;20087;-87
2023/06/21 00:07:40;;;;;;;10.35;7.43;;;;;;;;;;5096110;28;20588;-87
2023/06/21 00:10:07;;;;;;;10.52;7.45;;;;;;;;;;5095695;28;20496;-85
2023/06/21 00:12:36;;;;;;;11.75;7.95;;;;;;;;;;5095673;28;20043;-89
2023/06/21 00:15:03;;;;;;;8.95;8.00;;;;;;;;;;5095932;28;20048;-88
2023/06/21 00:17:31;;;;;;;8.40;7.53;;;;;;;;;;5095629;28;20109;-88
2023/06/21 00:19:58;;;;;;;10.85;7.90;;;;;;;;;;5095783;28;20048;-88
2023/06/21 00:22:25;;;;;;;11.13;8.25;;;;;;;;;;5095607;28;20055;-88
2023/06/21 00:24:52;;;;;;;13.50;8.85;;;;;;;;;;5096408;28;20048;-87
2023/06/21 00:27:20;;;;;;;17.52;8.57;;;;;;;;;;5095664;28;20051;-88
2023/06/21 00:29:47;;;;;;;10.18;8.75;;;;;;;;;;5095382;28;20074;-87
2023/06/21 00:32:14;;;;;;;11.10;9.68;;;;;;;;;;5095355;28;20056;-89
2023/06/21 00:34:42;;;;;;;15.35;9.68;;;;;;;;;;5095392;28;20077;-88
2023/06/21 00:37:11;;;;;;;14.25;8.88;;;;;;;;;;5096248;28;20055;-88
2023/06/21 00:39:38;;;;;;;10.00;8.73;;;;;;;;;;5095486;28;20105;-88
2023/06/21 00:42:06;;;;;;;12.85;9.77;;;;;;;;;;5096352;28;20464;-88
2023/06/21 00:44:34;;;;;;;11.95;9.13;;;;;;;;;;5095265;28;20105;-88
2023/06/21 00:47:02;;;;;;;11.48;9.20;;;;;;;;;;5095091;28;20084;-89
2023/06/21 00:49:29;;;;;;;9.02;8.13;;;;;;;;;;5094999;28;20044;-89
2023/06/21 00:51:57;;;;;;;11.70;9.23;;;;;;;;;;5093520;28;20048;-88
2023/06/21 00:54:30;;;;;;;14.07;9.02;;;;;;;;;;5094920;28;20389;-88
2023/06/21 00:56:57;;;;;;;14.57;9.63;;;;;;;;;;5095317;28;20562;-88
2023/06/21 00:59:28;;;;;;;15.27;9.85;;;;;;;;;;5095143;28;20052;-86
2023/06/21 01:01:55;;;;;;;12.77;9.95;;;;;;;;;;5094996;28;20048;-87
2023/06/21 01:04:24;;;;;;;13.75;10.38;;;;;;;;;;5094691;28;20054;-88
2023/06/21 01:06:54;;;;;;;15.65;10.13;;;;;;;;;;5094889;28;20047;-87
2023/06/21 01:09:37;;;;;;;14.27;10.02;;;;;;;;;;5094748;28;20084;-87
2023/06/21 01:12:08;;;;;;;12.65;10.90;;;;;;;;;;5100417;28;20038;-87
2023/06/21 01:14:38;;;;;;;14.70;10.05;;;;;;;;;;5109460;28;20040;-88
2023/06/21 01:17:06;;;;;;;11.15;9.90;;;;;;;;;;5095950;28;20055;-86
2023/06/21 01:19:42;;;;;;;15.93;10.32;;;;;;;;;;5094501;28;20093;-87
2023/06/21 01:22:16;;;;;;;16.90;11.63;;;;;;;;;;5100481;28;20044;-89
2023/06/21 01:24:57;;;;;;;12.70;10.57;;;;;;;;;;5098459;28;20047;-87
2023/06/21 01:27:27;;;;;;;13.93;10.75;;;;;;;;;;5095525;28;20140;-88
2023/06/21 01:29:58;;;;;;;14.05;11.75;;;;;;;;;;5094269;28;20126;-88
2023/06/21 01:32:29;;;;;;;14.75;10.85;;;;;;;;;;5094149;28;20056;-88
2023/06/21 01:34:57;;;;;;;13.40;11.82;;;;;;;;;;5091515;28;20048;-87
2023/06/21 01:37:24;;;;;;;12.07;10.88;;;;;;;;;;5094074;28;20569;-88
2023/06/21 01:39:52;;;;;;;19.10;11.23;;;;;;;;;;5094269;28;20121;-88
2023/06/21 01:42:19;;;;;;;13.52;10.40;;;;;;;;;;5094016;28;20488;-86
2023/06/21 01:44:47;;;;;;;15.32;11.77;;;;;;;;;;5095075;28;20083;-88
2023/06/21 01:47:14;;;;;;;17.27;12.65;;;;;;;;;;5095017;28;20051;-87
2023/06/21 01:49:42;;;;;;;14.40;11.80;;;;;;;;;;5093875;28;20054;-87
2023/06/21 01:52:10;;;;;;;19.65;12.32;;;;;;;;;;5093730;28;20496;-87
2023/06/21 01:54:40;;;;;;;15.82;12.60;;;;;;;;;;5093930;28;20554;-88
2023/06/21 01:57:08;;;;;;;16.75;13.25;;;;;;;;;;5094040;28;20047;-87
2023/06/21 01:59:36;;;;;;;14.93;12.15;;;;;;;;;;5093936;28;20044;-87
2023/06/21 02:02:05;;;;;;;17.52;11.90;;;;;;;;;;5093418;28;20058;-87
2023/06/21 02:04:33;;;;;;;17.08;11.95;;;;;;;;;;5093484;28;20043;-87
2023/06/21 02:07:02;;;;;;;18.58;13.10;;;;;;;;;;5094064;28;20052;-88
2023/06/21 02:09:30;;;;;;;16.48;11.63;;;;;;;;;;5093474;28;20054;-88
2023/06/21 02:12:00;;;;;;;13.32;11.73;;;;;;;;;;5093400;28;20048;-88
2023/06/21 02:14:27;;;;;;;16.45;12.60;;;;;;;;;;5093456;28;20048;-88
2023/06/21 02:16:55;;;;;;;17.83;12.68;;;;;;;;;;5094530;28;20080;-88
2023/06/21 02:19:22;;;;;;;15.40;11.50;;;;;;;;;;5093267;28;20094;-88
2023/06/21 02:21:49;;;;;;;14.20;11.30;;;;;;;;;;5093118;28;20052;-88
2023/06/21 02:24:17;;;;;;;15.68;12.05;;;;;;;;;;5093324;28;20047;-88
2023/06/21 02:26:45;;;;;;;13.63;12.20;;;;;;;;;;5092841;28;20134;-88
2023/06/21 02:29:12;;;;;;;14.90;12.30;;;;;;;;;;5094064;28;20101;-88
2023/06/21 02:31:39;;;;;;;15.02;12.35;;;;;;;;;;5092588;28;20116;-89
2023/06/21 02:34:07;;;;;;;19.02;13.02;;;;;;;;;;5098096;28;20044;-89
2023/06/21 02:36:38;;;;;;;14.15;12.52;;;;;;;;;;5109070;28;20126;-88
2023/06/21 02:39:06;;;;;;;18.02;13.85;;;;;;;;;;5093398;28;20079;-88
2023/06/21 02:41:34;;;;;;;16.42;13.57;;;;;;;;;;5092807;28;20093;-88
2023/06/21 02:44:01;;;;;;;14.95;13.18;;;;;;;;;;5093235;28;20044;-87
2023/06/21 02:46:28;;;;;;;18.60;13.10;;;;;;;;;;5093070;28;20044;-87
2023/06/21 02:48:56;;;;;;;16.98;12.57;;;;;;;;;;5093118;28;20052;-90
2023/06/21 02:51:25;;;;;;;15.48;12.80;;;;;;;;;;5092927;28;20096;-90
2023/06/21 02:53:52;;;;;;;14.07;12.63;;;;;;;;;;5093856;28;20078;-88
2023/06/21 02:56:19;;;;;;;15.48;12.57;;;;;;;;;;5092873;28;20416;-88
2023/06/21 02:58:46;;;;;;;19.45;12.60;;;;;;;;;;5093591;28;20093;-87
2023/06/21 03:01:15;;;;;;;22.02;13.70;;;;;;;;;;5092631;28;20044;-88
2023/06/21 03:03:44;;;;;;;16.95;13.13;;;;;;;;;;5092777;28;20408;-89
2023/06/21 03:06:11;;;;;;;17.45;12.98;;;;;;;;;;5092831;28;20054;-87
2023/06/21 03:08:40;;;;;;;14.45;13.00;;;;;;;;;;5092843;28;20055;-88
2023/06/21 03:11:12;;;;;;;17.20;12.90;;;;;;;;;;5093620;28;20044;-87
2023/06/21 03:13:39;;;;;;;16.92;13.27;;;;;;;;;;5092429;28;20116;-89
2023/06/21 03:16:07;;;;;;;16.77;13.35;;;;;;;;;;5096786;28;20048;-87
2023/06/21 03:18:34;;;;;;;20.67;14.80;;;;;;;;;;5096581;28;20507;-88
2023/06/21 03:21:02;;;;;;;17.17;13.07;;;;;;;;;;5097745;28;20563;-87
2023/06/21 03:23:29;;;;;;;16.95;12.70;;;;;;;;;;5097513;28;20097;-87
2023/06/21 03:25:57;;;;;;;18.38;14.43;;;;;;;;;;5096709;28;20051;-87
2023/06/21 03:28:24;;;;;;;15.95;12.70;;;;;;;;;;5096702;28;20052;-88
2023/06/21 03:30:51;;;;;;;19.60;14.65;;;;;;;;;;5096575;28;20076;-87
2023/06/21 03:33:19;;;;;;;23.98;15.25;;;;;;;;;;5096590;28;20159;-87
2023/06/21 03:35:46;;;;;;;19.20;13.30;;;;;;;;;;5097070;28;20052;-87
2023/06/21 03:38:14;;;;;;;22.60;15.85;;;;;;;;;;5097290;28;20048;-88
2023/06/21 03:40:41;;;;;;;23.05;15.05;;;;;;;;;;5097526;28;20037;-87
2023/06/21 03:43:08;;;;;;;20.35;15.15;;;;;;;;;;5096476;28;20055;-87
2023/06/21 03:45:36;;;;;;;16.45;13.85;;;;;;;;;;5096432;28;20455;-87
2023/06/21 03:48:05;;;;;;;18.23;14.48;;;;;;;;;;5095934;28;20048;-88
2023/06/21 03:50:33;;;;;;;22.63;14.40;;;;;;;;;;5096494;28;20048;-87
2023/06/21 03:53:00;;;;;;;20.08;15.55;;;;;;;;;;5095907;28;20117;-88
2023/06/21 03:55:28;;;;;;;19.13;14.98;;;;;;;;;;5096128;28;20089;-89
2023/06/21 03:57:55;;;;;;;20.45;16.58;;;;;;;;;;5096262;28;20051;-87
2023/06/21 04:00:22;;;;;;;19.88;14.90;;;;;;;;;;5096432;28;20056;-88
2023/06/21 04:02:49;;;;;;;24.67;14.85;;;;;;;;;;5093477;28;20055;-87
2023/06/21 04:05:17;;;;;;;16.70;14.73;;;;;;;;;;5095631;28;20044;-88
2023/06/21 04:07:47;;;;;;;17.35;13.40;;;;;;;;;;5095591;28;20480;-88
2023/06/21 04:10:14;;;;;;;25.65;16.55;;;;;;;;;;5095862;28;20048;-87
2023/06/21 04:12:41;;;;;;;17.73;14.00;;;;;;;;;;5095704;28;20101;-86
2023/06/21 04:15:09;;;;;;;19.00;15.30;;;;;;;;;;5095444;28;20127;-88
2023/06/21 04:17:36;;;;;;;21.00;16.45;;;;;;;;;;5095646;28;20109;-86
2023/06/21 04:20:10;;;;;;;25.38;16.35;;;;;;;;;;5095500;28;20496;-87
2023/06/21 04:22:42;;;;;;;24.50;16.70;;;;;;;;;;5095571;28;20059;-89
2023/06/21 04:25:09;;;;;;;19.60;15.52;;;;;;;;;;5095232;28;20043;-86
2023/06/21 04:27:40;;;;;;;28.20;16.10;;;;;;;;;;5095274;28;20055;-87
2023/06/21 04:30:10;;;;;;;22.50;15.43;;;;;;;;;;5095410;28;20051;-88
2023/06/21 04:32:44;;;;;;;21.42;15.07;;;;;;;;;;5094692;28;20056;-86
2023/06/21 04:35:19;;;;;;;17.33;13.52;;;;;;;;;;5095156;28;20512;-87
2023/06/21 04:37:47;;;;;;;20.90;13.93;;;;;;;;;;5095141;28;20082;-87
2023/06/21 04:40:15;;;;;;;14.70;12.35;;;;;;;;;;5095204;28;20071;-84
2023/06/21 04:43:01;;;;;;;14.52;12.38;;;;;;;;;;5095101;28;20056;-87
2023/06/21 04:45:28;;;;;;;14.25;10.73;;;;;;;;;;5094586;28;20060;-86
2023/06/21 04:47:57;;;;;;;10.55;9.55;;;;;;;;;;5094831;28;20452;-88
2023/06/21 04:50:26;;;;;;;13.13;10.23;;;;;;;;;;5094710;28;20064;-86
2023/06/21 04:52:57;;;;;;;12.32;10.60;;;;;;;;;;5094389;28;20048;-86
2023/06/21 04:55:29;;;;;;;10.13;8.65;;;;;;;;;;5094342;28;20063;-86
2023/06/21 04:57:58;;;;;;;10.32;7.78;;;;;;;;;;5094166;28;20554;-86
2023/06/21 05:00:26;;;;;;;7.93;6.53;;;;;;;;;;5094533;28;20052;-86
2023/06/21 05:02:55;;;;;;;8.00;6.85;;;;;;;;;;5094258;28;20067;-85
2023/06/21 05:05:22;;;;;;;11.40;6.70;;;;;;;;;;5094298;28;20048;-85
2023/06/21 05:07:49;;;;;;;8.90;6.35;;;;;;;;;;5093932;28;20459;-85
2023/06/21 05:10:17;;;;;;;9.75;5.60;;;;;;;;;;5094008;28;20048;-86
2023/06/21 05:12:44;;;;;;;7.65;4.78;;;;;;;;;;5093932;28;20467;-84
2023/06/21 05:15:11;;;;;;;4.47;4.07;;;;;;;;;;5095178;28;20109;-84
2023/06/21 05:17:38;;;;;;;5.95;3.58;;;;;;;;;;5095078;28;20052;-84
2023/06/21 05:20:08;;;;;;;4.20;3.80;;;;;;;;;;5093880;28;20048;-84
2023/06/21 05:22:37;;;;;;;5.78;3.40;;;;;;;;;;5094838;28;20040;-83
2023/06/21 05:25:05;;;;;;;4.03;3.38;;;;;;;;;;5093833;28;20052;-85
2023/06/21 05:27:32;;;;;;;4.10;3.08;;;;;;;;;;5093640;28;20044;-83
2023/06/21 05:29:59;;;;;;;7.78;2.90;;;;;;;;;;5094545;28;20044;-84
2023/06/21 05:32:29;;;;;;;3.95;2.90;;;;;;;;;;5092888;28;20414;-84
2023/06/21 05:34:57;;;;;;;3.72;2.80;;;;;;;;;;5093439;28;20082;-84
2023/06/21 05:37:24;;;;;;;3.30;2.47;;;;;;;;;;5092241;28;20114;-84
2023/06/21 05:39:51;;;;;;;6.30;2.70;;;;;;;;;;5093254;28;20083;-83
2023/06/21 05:42:18;;;;;;;3.80;2.72;;;;;;;;;;5092914;28;20064;-84
2023/06/21 05:44:46;;;;;;;3.63;2.83;;;;;;;;;;5094042;28;20458;-84
2023/06/21 05:47:14;;;;;;;3.05;2.72;;;;;;;;;;5094024;28;20746;-83
2023/06/21 05:49:41;;;;;;;4.60;2.67;;;;;;;;;;5092747;28;20081;-83
2023/06/21 05:52:08;;;;;;;4.15;2.70;;;;;;;;;;5093456;28;20047;-84
2023/06/21 05:54:41;;;;;;;4.85;2.90;;;;;;;;;;5093909;28;20044;-84
2023/06/21 05:57:08;;;;;;;4.85;2.90;;;;;;;;;;5092962;28;20385;-84
2023/06/21 05:59:36;;;;;;;3.00;2.60;;;;;;;;;;5092779;28;20155;-83
2023/06/21 06:02:03;;;;;;;4.22;3.00;;;;;;;;;;5096475;28;20530;-83
2023/06/21 06:04:31;;;;;;;3.45;2.90;;;;;;;;;;5113860;28;20142;-83
2023/06/21 06:06:58;;;;;;;4.30;2.80;;;;;;;;;;5112798;28;20097;-83
2023/06/21 06:09:25;;;;;;;3.58;2.70;;;;;;;;;;5113864;28;20477;-82
2023/06/21 06:11:52;;;;;;;4.88;2.60;;;;;;;;;;5112757;28;20051;-84
2023/06/21 06:14:20;;;;;;;4.13;2.38;;;;;;;;;;5112582;28;20043;-83
2023/06/21 06:16:47;;;;;;;3.60;2.78;;;;;;;;;;5112739;28;20105;-82
2023/06/21 06:19:14;;;;;;;4.70;2.78;;;;;;;;;;5112543;28;20097;-83
2023/06/21 06:21:42;;;;;;;5.18;2.63;;;;;;;;;;5112409;28;20050;-84
2023/06/21 06:24:09;;;;;;;3.00;2.67;;;;;;;;;;5112615;28;20507;-83
2023/06/21 06:26:36;;;;;;;2.75;2.55;;;;;;;;;;5113638;28;20082;-84
2023/06/21 06:29:03;;;;;;;3.15;2.92;;;;;;;;;;5112568;28;20052;-84
2023/06/21 06:31:31;;;;;;;5.63;3.10;;;;;;;;;;5112049;28;20048;-83
2023/06/21 06:33:58;;;;;;;3.00;2.80;;;;;;;;;;5112483;28;20122;-84
2023/06/21 06:36:25;;;;;;;7.75;2.65;;;;;;;;;;5112298;28;20454;-82
2023/06/21 06:38:53;;;;;;;5.72;3.40;;;;;;;;;;5112440;28;20047;-84
2023/06/21 06:41:20;;;;;;;3.97;2.85;;;;;;;;;;5112216;28;20047;-81
2023/06/21 06:43:47;;;;;;;6.53;3.20;;;;;;;;;;5112330;28;20047;-84
2023/06/21 06:46:14;;;;;;;4.25;3.28;;;;;;;;;;5113250;28;20055;-81
2023/06/21 06:48:42;;;;;;;5.20;3.10;;;;;;;;;;5112090;28;20108;-81
2023/06/21 06:51:09;;;;;;;4.28;3.00;;;;;;;;;;5112185;28;20089;-81
2023/06/21 06:53:36;;;;;;;3.75;3.22;;;;;;;;;;5113292;28;20095;-81
2023/06/21 06:56:03;;;;;;;6.18;2.92;;;;;;;;;;5112140;28;20051;-81
2023/06/21 06:58:35;;;;;;;5.93;3.00;;;;;;;;;;5111934;28;20484;-81
2023/06/21 07:01:06;;;;;;;4.43;3.30;;;;;;;;;;5112136;28;20112;-82
2023/06/21 07:03:33;;;;;;;5.05;3.25;;;;;;;;;;5113140;28;20047;-83
2023/06/21 07:06:02;;;;;;;5.25;3.40;;;;;;;;;;5112044;28;20054;-83
2023/06/21 07:08:29;;;;;;;5.47;3.28;;;;;;;;;;5111961;28;20048;-82
2023/06/21 07:10:56;;;;;;;7.22;4.10;;;;;;;;;;5112938;28;20047;-85
2023/06/21 07:13:23;;;;;;;4.50;3.47;;;;;;;;;;5111850;28;20048;-82
2023/06/21 07:15:51;;;;;;;4.75;3.28;;;;;;;;;;5111939;28;20082;-82
2023/06/21 07:18:18;;;;;;;7.60;3.67;;;;;;;;;;5111870;28;20097;-82
2023/06/21 07:20:45;;;;;;;8.25;3.60;;;;;;;;;;5111659;28;20112;-83
2023/06/21 07:23:13;;;;;;;4.00;3.30;;;;;;;;;;5112438;28;20051;-82
2023/06/21 07:25:40;;;;;;;5.15;3.25;;;;;;;;;;5111492;28;20062;-81
2023/06/21 07:28:07;;;;;;;6.32;3.10;;;;;;;;;;5111753;28;20128;-85
2023/06/21 07:30:34;;;;;;;3.75;2.90;;;;;;;;;;5112037;28;20059;-83
2023/06/21 07:33:03;;;;;;;5.25;3.10;;;;;;;;;;5111498;28;20062;-82
2023/06/21 07:35:31;;;;;;;6.55;3.60;;;;;;;;;;5111703;28;20050;-83
2023/06/21 07:37:58;;;;;;;4.07;2.80;;;;;;;;;;5111557;28;20122;-84
2023/06/21 07:40:25;;;;;;;3.15;2.83;;;;;;;;;;5112756;28;20439;-83
2023/06/21 07:42:52;;;;;;;4.60;2.90;;;;;;;;;;5111641;28;20039;-83
2023/06/21 07:45:20;;;;;;;3.08;2.80;;;;;;;;;;5112915;28;20048;-84
2023/06/21 07:47:47;;;;;;;3.20;3.00;;;;;;;;;;5111762;28;20044;-84
2023/06/21 07:50:14;;;;;;;8.98;3.03;;;;;;;;;;5112910;28;20054;-84
2023/06/21 07:52:49;;;;;;;2.65;2.53;;;;;;;;;;5111448;28;20321;-84
2023/06/21 07:55:16;;;;;;;4.32;3.13;;;;;;;;;;5111502;28;20056;-84
2023/06/21 07:57:44;;;;;;;3.17;2.97;;;;;;;;;;5111842;28;20044;-82
2023/06/21 08:00:11;;;;;;;3.20;2.90;;;;;;;;;;5113410;28;20087;-84
2023/06/21 08:02:40;;;;;;;5.53;3.13;;;;;;;;;;5115302;28;20051;-83
2023/06/21 08:05:08;;;;;;;4.57;3.75;;;;;;;;;;5115302;28;20058;-83
2023/06/21 08:07:36;;;;;;;4.85;3.20;;;;;;;;;;5116631;28;20412;-83
2023/06/21 08:10:03;;;;;;;3.22;2.95;;;;;;;;;;5115752;28;20058;-85
2023/06/21 08:12:31;;;;;;;4.03;3.17;;;;;;;;;;5116236;28;20043;-84
2023/06/21 08:15:02;;;;;;;2.80;2.60;;;;;;;;;;5115631;28;20047;-84
2023/06/21 08:17:29;;;;;;;3.10;2.80;;;;;;;;;;5115028;28;20411;-85
2023/06/21 08:19:56;;;;;;;5.72;3.28;;;;;;;;;;5116686;28;20469;-87
2023/06/21 08:22:23;;;;;;;3.10;2.70;;;;;;;;;;5114825;28;20052;-84
2023/06/21 08:24:51;;;;;;;5.13;3.13;;;;;;;;;;5114940;28;20089;-84
2023/06/21 08:27:18;;;;;;;6.82;3.30;;;;;;;;;;5115273;28;20079;-83
2023/06/21 08:29:47;;;;;;;5.13;3.30;;;;;;;;;;5116157;28;20087;-84
2023/06/21 08:32:14;;;;;;;7.63;2.80;;;;;;;;;;5114678;28;20079;-84
2023/06/21 08:34:41;;;;;;;22.33;3.47;;;;;;;;;;5114900;28;20055;-85
2023/06/21 08:37:08;;;;;;;4.63;2.53;;;;;;;;;;5115267;28;20048;-86
2023/06/21 08:39:35;;;;;;;2.83;2.63;;;;;;;;;;5114903;28;20480;-84
2023/06/21 08:42:03;;;;;;;2.85;2.70;;;;;;;;;;5115836;28;20051;-85
2023/06/21 08:44:31;;;;;;;3.42;3.13;;;;;;;;;;5114829;28;20043;-86
2023/06/21 08:47:00;;;;;;;6.35;2.90;;;;;;;;;;5114812;28;20104;-84
2023/06/21 08:49:28;;;;;;;14.82;3.38;;;;;;;;;;5114635;28;20073;-83
2023/06/21 08:51:58;;;;;;;2.92;2.67;;;;;;;;;;5115731;28;20047;-87
2023/06/21 08:54:29;;;;;;;3.95;3.20;;;;;;;;;;5115053;28;20164;-85
2023/06/21 08:57:16;;;;;;;2.92;2.67;;;;;;;;;;5115309;28;20043;-84
2023/06/21 08:59:50;;;;;;;3.40;2.75;;;;;;;;;;5114749;28;20070;-87
2023/06/21 09:02:39;;;;;;;3.55;3.25;;;;;;;;;;5115002;28;20068;-87
2023/06/21 09:05:09;;;;;;;6.68;2.90;;;;;;;;;;5114840;28;20047;-87
2023/06/21 09:07:37;;;;;;;3.53;2.67;;;;;;;;;;5114680;28;20077;-85
2023/06/21 09:10:05;;;;;;;2.78;2.58;;;;;;;;;;5115529;27;20407;-86
2023/06/21 09:12:34;;;;;;;4.60;3.30;;;;;;;;;;5113748;28;20040;-84
2023/06/21 09:15:01;;;;;;;3.20;3.00;;;;;;;;;;5114773;28;20506;-85
2023/06/21 09:17:28;;;;;;;3.15;2.83;;;;;;;;;;5114376;28;20391;-85
2023/06/21 09:19:57;;;;;;;6.57;3.10;;;;;;;;;;5114992;28;20055;-83
2023/06/21 09:22:25;;;;;;;2.90;2.50;;;;;;;;;;5115470;28;20442;-85
2023/06/21 09:24:52;;;;;;;4.03;3.03;;;;;;;;;;5114493;28;20047;-85
2023/06/21 09:27:20;;;;;;;3.22;3.03;;;;;;;;;;5114602;28;20128;-85
2023/06/21 09:29:47;;;;;;;4.30;3.47;;;;;;;;;;5114177;28;20058;-85
2023/06/21 09:32:14;;;;;;;3.05;2.85;;;;;;;;;;5113838;28;20116;-86
2023/06/21 09:34:42;;;;;;;3.05;2.85;;;;;;;;;;5114260;28;20065;-86
2023/06/21 09:37:09;;;;;;;2.90;2.70;;;;;;;;;;5113935;28;20046;-85
2023/06/21 09:39:36;;;;;;;2.70;2.50;;;;;;;;;;5115023;28;20040;-85
2023/06/21 09:42:05;;;;;;;4.93;2.90;;;;;;;;;;5114884;28;20050;-86
2023/06/21 09:44:35;;;;;;;3.28;2.80;;;;;;;;;;5114322;28;20044;-84
2023/06/21 09:47:03;;;;;;;3.53;3.00;;;;;;;;;;5112369;28;20067;-85
2023/06/21 09:49:30;;;;;;;3.63;2.90;;;;;;;;;;5115275;28;20044;-86
2023/06/21 09:51:57;;;;;;;3.25;2.75;;;;;;;;;;5114373;28;20071;-87
2023/06/21 09:54:25;;;;;;;4.00;2.88;;;;;;;;;;5115323;28;20055;-84
2023/06/21 09:56:52;;;;;;;3.20;2.83;;;;;;;;;;5114319;28;20069;-86
2023/06/21 09:59:20;;;;;;;5.00;4.50;;;;;;;;;;5114186;28;20073;-87
2023/06/21 10:01:49;;;;;;;3.40;2.95;;;;;;;;;;5114271;28;20039;-86
2023/06/21 10:04:17;;;;;;;11.85;4.07;;;;;;;;;;5114127;28;20082;-88
2023/06/21 10:06:54;;;;;;;3.17;2.78;;;;;;;;;;5115295;28;20245;-84
2023/06/21 10:09:22;;;;;;;3.53;3.22;;;;;;;;;;5113981;28;20580;-86
2023/06/21 10:11:49;;;;;;;4.10;3.70;;;;;;;;;;5113763;28;20044;-86
2023/06/21 10:14:25;;;;;;;4.32;3.42;;;;;;;;;;5113976;28;20048;-89
2023/06/21 10:16:55;;;;;;;5.65;3.38;;;;;;;;;;5113999;28;20050;-87
2023/06/21 10:19:24;;;;;;;7.07;3.60;;;;;;;;;;5113809;28;20044;-85
2023/06/21 10:21:52;;;;;;;3.60;3.28;;;;;;;;;;5113768;28;20047;-86
2023/06/21 10:24:21;;;;;;;3.70;3.35;;;;;;;;;;5113350;28;20047;-86
2023/06/21 10:26:49;;;;;;;3.20;2.97;;;;;;;;;;5113872;28;20116;-86
2023/06/21 10:29:18;;;;;;;3.83;3.53;;;;;;;;;;5113377;28;20131;-86
2023/06/21 10:31:47;;;;;;;5.47;3.92;;;;;;;;;;5113440;28;20124;-84
2023/06/21 10:34:19;;;;;;;3.88;3.05;;;;;;;;;;5114628;28;20054;-84
2023/06/21 10:36:50;;;;;;;3.83;3.50;;;;;;;;;;5113697;28;20048;-86
2023/06/21 10:39:21;;;;;;;5.15;3.35;;;;;;;;;;5114129;28;20092;-86
2023/06/21 10:41:49;;;;;;;4.30;3.67;;;;;;;;;;5113624;28;20551;-85
2023/06/21 10:44:17;;;;;;;7.28;6.68;;;;;;;;;;5115394;28;20092;-83
2023/06/21 10:46:51;;;;;;;7.15;3.60;;;;;;;;;;5114323;28;20469;-86
2023/06/21 10:49:19;;;;;;;4.40;3.10;;;;;;;;;;5114203;28;20047;-86
2023/06/21 10:51:47;;;;;;;6.53;3.10;;;;;;;;;;5113165;28;20078;-86
2023/06/21 10:54:16;;;;;;;3.10;2.78;;;;;;;;;;5113454;28;20104;-85
2023/06/21 10:56:43;;;;;;;4.70;3.40;;;;;;;;;;5113313;28;20449;-87
2023/06/21 10:59:11;;;;;;;4.70;3.22;;;;;;;;;;5113051;28;20058;-86
2023/06/21 11:01:38;;;;;;;3.92;3.50;;;;;;;;;;5113263;28;20048;-87
2023/06/21 11:04:07;;;;;;;2.90;2.70;;;;;;;;;;5113283;28;20043;-86
2023/06/21 11:06:37;;;;;;;4.13;3.13;;;;;;;;;;5113131;28;20047;-88
2023/06/21 11:09:10;;;;;;;3.85;3.55;;;;;;;;;;5113330;28;20048;-85
2023/06/21 11:11:40;;;;;;;5.72;3.90;;;;;;;;;;5113530;28;20047;-88
2023/06/21 11:14:07;;;;;;;3.67;3.25;;;;;;;;;;5113124;28;20139;-88
2023/06/21 11:16:37;;;;;;;3.05;2.80;;;;;;;;;;5113560;28;20480;-86
2023/06/21 11:19:08;;;;;;;3.47;3.00;;;;;;;;;;5112741;28;20552;-87
2023/06/21 11:21:45;;;;;;;3.67;3.33;;;;;;;;;;5112815;28;20048;-85
2023/06/21 11:24:15;;;;;;;7.35;3.35;;;;;;;;;;5112797;28;20048;-86
2023/06/21 11:27:01;;;;;;;3.95;3.50;;;;;;;;;;5113168;28;20048;-86
2023/06/21 11:29:38;;;;;;;3.25;2.70;;;;;;;;;;5112608;28;20052;-86
2023/06/21 11:32:15;;;;;;;5.85;3.00;;;;;;;;;;5112979;28;20078;-87
2023/06/21 11:34:53;;;;;;;5.63;3.42;;;;;;;;;;5114316;28;20047;-88
2023/06/21 11:37:41;;;;;;;3.70;3.40;;;;;;;;;;5116921;28;20048;-86
2023/06/21 11:40:10;;;;;;;5.03;3.30;;;;;;;;;;5116640;28;20081;-85
2023/06/21 11:42:42;;;;;;;5.20;3.30;;;;;;;;;;5116979;28;20054;-86
2023/06/21 11:45:19;;;;;;;5.90;3.33;;;;;;;;;;5117005;28;20051;-86
2023/06/21 11:48:00;;;;;;;5.07;3.50;;;;;;;;;;5117020;28;20063;-85
2023/06/21 11:50:34;;;;;;;3.88;3.45;;;;;;;;;;5116706;28;20134;-86
2023/06/21 11:53:12;;;;;;;5.82;2.92;;;;;;;;;;5116932;28;20484;-85
2023/06/21 11:55:40;;;;;;;9.43;3.72;;;;;;;;;;5116820;28;20130;-88
2023/06/21 11:58:09;;;;;;;3.90;3.53;;;;;;;;;;5116458;28;20062;-87
2023/06/21 12:00:36;;;;;;;3.60;3.30;;;;;;;;;;5117401;28;20077;-85
2023/06/21 12:03:05;;;;;;;4.97;3.17;;;;;;;;;;5117403;28;20550;-86
2023/06/21 12:05:52;;;;;;;3.67;3.00;;;;;;;;;;5116575;28;20051;-86
2023/06/21 12:08:21;;;;;;;5.50;3.13;;;;;;;;;;5116446;28;20096;-85
2023/06/21 12:10:49;;;;;;;5.28;3.20;;;;;;;;;;5116281;28;20083;-85
2023/06/21 12:13:20;;;;;;;7.00;3.30;;;;;;;;;;5117162;28;20070;-87
2023/06/21 12:15:51;;;;;;;12.18;4.38;;;;;;;;;;5117056;28;20073;-86
2023/06/21 12:18:18;;;;;;;10.90;3.50;;;;;;;;;;5117039;28;20074;-85
2023/06/21 12:20:46;;;;;;;3.45;3.15;;;;;;;;;;5115871;28;20173;-85
2023/06/21 12:23:20;;;;;;;3.85;3.60;;;;;;;;;;5115755;28;20134;-85
2023/06/21 12:25:49;;;;;;;3.35;3.05;;;;;;;;;;5115852;28;20048;-86
2023/06/21 12:28:17;;;;;;;4.00;3.47;;;;;;;;;;5116038;28;20048;-85
2023/06/21 12:30:46;;;;;;;3.72;3.42;;;;;;;;;;5115289;28;20048;-83
2023/06/21 12:33:14;;;;;;;5.90;3.80;;;;;;;;;;5115532;28;20426;-85
2023/06/21 12:35:42;;;;;;;5.88;3.30;;;;;;;;;;5115404;28;20047;-84
2023/06/21 12:38:13;;;;;;;4.60;3.13;;;;;;;;;;5115265;28;20377;-85
2023/06/21 12:41:00;;;;;;;6.55;3.42;;;;;;;;;;5115389;28;20048;-85
2023/06/21 12:43:46;;;;;;;6.88;3.50;;;;;;;;;;5115412;28;20043;-85
2023/06/21 12:46:14;;;;;;;4.55;3.38;;;;;;;;;;5116045;28;20040;-84
2023/06/21 12:48:51;;;;;;;3.55;3.25;;;;;;;;;;5115057;28;20051;-84
2023/06/21 12:51:19;;;;;;;5.03;3.30;;;;;;;;;;5115177;28;20406;-84
2023/06/21 12:53:47;;;;;;;3.95;3.53;;;;;;;;;;5115014;28;20499;-83
2023/06/21 12:56:14;;;;;;;9.30;4.20;;;;;;;;;;5115193;28;20039;-85
2023/06/21 12:58:41;;;;;;;6.95;4.85;;;;;;;;;;5115251;28;20048;-86
2023/06/21 13:01:09;;;;;;;8.73;4.75;;;;;;;;;;5115444;28;20047;-86
2023/06/21 13:03:36;;;;;;;8.50;5.38;;;;;;;;;;5116408;28;20059;-87
2023/06/21 13:06:04;;;;;;;9.10;5.45;;;;;;;;;;5115488;28;20056;-85
2023/06/21 13:08:32;;;;;;;10.25;5.68;;;;;;;;;;5115330;28;20154;-85
2023/06/21 13:11:02;;;;;;;9.77;6.32;;;;;;;;;;5116221;28;20058;-85
2023/06/21 13:13:29;;;;;;;6.88;6.18;;;;;;;;;;5115889;27;20447;-88
2023/06/21 13:15:58;;;;;;;12.23;6.32;;;;;;;;;;5115086;28;20059;-85
2023/06/21 13:18:27;;;;;;;7.07;6.38;;;;;;;;;;5115002;28;20051;-85
2023/06/21 13:20:58;;;;;;;8.10;7.25;;;;;;;;;;5114895;28;20039;-85
2023/06/21 13:23:25;;;;;;;8.82;6.97;;;;;;;;;;5114690;28;20052;-85
2023/06/21 13:25:53;;;;;;;9.23;7.07;;;;;;;;;;5114839;28;20043;-85
2023/06/21 13:28:20;;;;;;;7.47;6.78;;;;;;;;;;5114876;28;20055;-87
2023/06/21 13:30:51;;;;;;;8.45;7.05;;;;;;;;;;5114643;28;20083;-85
2023/06/21 13:33:18;;;;;;;7.88;7.07;;;;;;;;;;5115593;28;20067;-85
2023/06/21 13:35:45;;;;;;;9.40;8.40;;;;;;;;;;5115661;27;20108;-84
2023/06/21 13:38:15;;;;;;;9.40;8.52;;;;;;;;;;5114373;28;20502;-85
2023/06/21 13:40:43;;;;;;;9.65;8.35;;;;;;;;;;5114402;28;20104;-85
2023/06/21 13:43:11;;;;;;;9.45;8.55;;;;;;;;;;5114539;28;20081;-85
2023/06/21 13:45:38;;;;;;;11.60;8.45;;;;;;;;;;5114254;28;20048;-85
2023/06/21 13:48:06;;;;;;;9.27;8.13;;;;;;;;;;5114440;28;20044;-85
2023/06/21 13:50:33;;;;;;;9.02;8.20;;;;;;;;;;5114070;28;20410;-84
2023/06/21 13:53:03;;;;;;;9.20;7.85;;;;;;;;;;5114159;28;20063;-84
2023/06/21 13:55:30;;;;;;;13.65;9.30;;;;;;;;;;5114159;28;20055;-84
2023/06/21 13:57:59;;;;;;;13.20;9.43;;;;;;;;;;5113368;28;20051;-84
2023/06/21 14:00:27;;;;;;;11.65;8.77;;;;;;;;;;5113463;28;20139;-84
2023/06/21 14:02:55;;;;;;;9.85;8.68;;;;;;;;;;5113759;28;20079;-85
2023/06/21 14:05:23;;;;;;;10.20;8.18;;;;;;;;;;5113675;28;20043;-84
2023/06/21 14:07:51;;;;;;;8.55;7.50;;;;;;;;;;5113584;28;20098;-84
2023/06/21 14:10:18;;;;;;;11.27;8.00;;;;;;;;;;5114751;28;20052;-84
2023/06/21 14:12:45;;;;;;;8.27;7.38;;;;;;;;;;5113359;28;20104;-85
2023/06/21 14:15:13;;;;;;;7.55;6.75;;;;;;;;;;5113196;28;20054;-83
2023/06/21 14:17:40;;;;;;;7.60;6.90;;;;;;;;;;5113268;28;20071;-82
2023/06/21 14:20:09;;;;;;;7.72;7.13;;;;;;;;;;5114471;28;20122;-83
2023/06/21 14:22:37;;;;;;;8.55;7.75;;;;;;;;;;5113253;28;20044;-84
2023/06/21 14:25:06;;;;;;;7.72;7.13;;;;;;;;;;5113296;28;20053;-83
2023/06/21 14:27:33;;;;;;;8.77;7.45;;;;;;;;;;5114246;28;20101;-84
2023/06/21 14:30:03;;;;;;;8.55;6.53;;;;;;;;;;5113104;28;20553;-84
2023/06/21 14:32:31;;;;;;;6.93;6.22;;;;;;;;;;5112917;28;20055;-83
2023/06/21 14:34:59;;;;;;;6.93;6.20;;;;;;;;;;5112088;28;20043;-83
2023/06/21 14:37:27;;;;;;;6.88;6.15;;;;;;;;;;5113064;28;20047;-84
2023/06/21 14:39:54;;;;;;;7.43;6.60;;;;;;;;;;5113167;28;20047;-83
2023/06/21 14:42:25;;;;;;;8.95;6.50;;;;;;;;;;5112103;28;20077;-83
2023/06/21 14:44:52;;;;;;;8.75;5.63;;;;;;;;;;5112076;28;20047;-82